sensor_id;sensor_type;location;lat;lon;timestamp;P1;P2;P0
61542;PMS5003;47414;43.168;44.812;2022-10-23T00:04:50;17.00;16.00;11.00
61542;PMS5003;47414;43.168;44.812;2022-10-23T00:09:51;14.00;13.50;10.00
61542;PMS5003;47414;43.168;44.812;2022-10-23T00:14:51;13.00;13.00;9.00
61542;PMS5003;47414;43.168;44.812;2022-10-23T00:19:52;14.00;14.00;9.00
61542;PMS5003;47414;43.168;44.812;2022-10-23T00:24:52;13.00;10.75;7.00
61542;PMS5003;47414;43.168;44.812;2022-10-23T00:29:52;13.00;11.00;8.00
61542;PMS5003;47414;43.168;44.812;2022-10-23T00:34:53;11.50;10.50;7.00
61542;PMS5003;47414;43.168;44.812;2022-10-23T00:39:53;17.00;13.75;9.00
61542;PMS5003;47414;43.168;44.812;2022-10-23T00:49:54;11.40;10.60;6.40
61542;PMS5003;47414;43.168;44.812;2022-10-23T00:54:54;11.00;11.00;6.75
61542;PMS5003;47414;43.168;44.812;2022-10-23T00:59:55;7.50;3.75;2.00
61542;PMS5003;47414;43.168;44.812;2022-10-23T01:04:55;9.00;7.50;5.75
61542;PMS5003;47414;43.168;44.812;2022-10-23T01:10:15;13.50;12.50;7.00
61542;PMS5003;47414;43.168;44.812;2022-10-23T01:15:31;14.50;14.50;8.00
61542;PMS5003;47414;43.168;44.812;2022-10-23T01:30:45;13.75;13.75;9.00
61542;PMS5003;47414;43.168;44.812;2022-10-23T01:36:20;17.00;14.00;9.00
61542;PMS5003;47414;43.168;44.812;2022-10-23T01:41:18;13.50;13.50;9.00
61542;PMS5003;47414;43.168;44.812;2022-10-23T01:46:20;13.25;13.25;10.50
61542;PMS5003;47414;43.168;44.812;2022-10-23T01:51:23;13.75;13.75;8.00
61542;PMS5003;47414;43.168;44.812;2022-10-23T01:56:29;15.50;15.50;10.00
61542;PMS5003;47414;43.168;44.812;2022-10-23T02:01:31;4.75;4.75;1.00
61542;PMS5003;47414;43.168;44.812;2022-10-23T02:06:33;16.00;13.75;10.50
61542;PMS5003;47414;43.168;44.812;2022-10-23T02:11:34;13.75;13.75;9.00
61542;PMS5003;47414;43.168;44.812;2022-10-23T02:26:48;12.00;9.60;6.00
61542;PMS5003;47414;43.168;44.812;2022-10-23T02:31:50;13.75;12.50;10.00
61542;PMS5003;47414;43.168;44.812;2022-10-23T02:36:50;16.75;16.25;9.00
61542;PMS5003;47414;43.168;44.812;2022-10-23T02:57:13;17.00;16.00;9.50
61542;PMS5003;47414;43.168;44.812;2022-10-23T03:02:24;17.25;17.25;12.00
61542;PMS5003;47414;43.168;44.812;2022-10-23T03:07:27;20.25;19.25;12.50
61542;PMS5003;47414;43.168;44.812;2022-10-23T03:12:28;15.50;14.00;8.75
61542;PMS5003;47414;43.168;44.812;2022-10-23T03:17:28;17.00;17.00;10.50
61542;PMS5003;47414;43.168;44.812;2022-10-23T03:22:29;13.00;12.50;9.00
61542;PMS5003;47414;43.168;44.812;2022-10-23T03:27:29;30.25;28.75;20.00
61542;PMS5003;47414;43.168;44.812;2022-10-23T03:32:29;25.80;24.80;18.00
61542;PMS5003;47414;43.168;44.812;2022-10-23T03:37:30;21.25;21.00;17.25
61542;PMS5003;47414;43.168;44.812;2022-10-23T03:42:30;18.75;17.50;12.50
61542;PMS5003;47414;43.168;44.812;2022-10-23T03:47:30;37.00;33.00;24.75
61542;PMS5003;47414;43.168;44.812;2022-10-23T03:52:31;13.25;12.25;10.00
61542;PMS5003;47414;43.168;44.812;2022-10-23T03:57:31;15.00;14.75;10.00
61542;PMS5003;47414;43.168;44.812;2022-10-23T04:02:31;37.25;36.75;27.00
61542;PMS5003;47414;43.168;44.812;2022-10-23T04:07:32;36.75;36.25;24.00
61542;PMS5003;47414;43.168;44.812;2022-10-23T04:12:32;22.50;19.25;15.75
61542;PMS5003;47414;43.168;44.812;2022-10-23T04:17:32;11.75;11.75;8.00
61542;PMS5003;47414;43.168;44.812;2022-10-23T04:22:33;18.50;17.25;11.00
61542;PMS5003;47414;43.168;44.812;2022-10-23T04:27:33;19.00;18.25;13.75
61542;PMS5003;47414;43.168;44.812;2022-10-23T04:32:34;15.75;15.25;11.25
61542;PMS5003;47414;43.168;44.812;2022-10-23T04:37:34;15.25;14.00;11.25
61542;PMS5003;47414;43.168;44.812;2022-10-23T04:42:34;11.25;11.25;9.00
61542;PMS5003;47414;43.168;44.812;2022-10-23T04:47:35;13.25;13.25;10.00
61542;PMS5003;47414;43.168;44.812;2022-10-23T04:52:35;13.75;13.75;10.50
61542;PMS5003;47414;43.168;44.812;2022-10-23T04:57:35;16.25;15.00;11.50
61542;PMS5003;47414;43.168;44.812;2022-10-23T05:02:36;13.50;13.00;7.25
61542;PMS5003;47414;43.168;44.812;2022-10-23T05:07:36;14.50;13.50;8.75
61542;PMS5003;47414;43.168;44.812;2022-10-23T05:12:36;16.00;14.50;10.00
61542;PMS5003;47414;43.168;44.812;2022-10-23T05:17:37;13.75;13.25;7.75
61542;PMS5003;47414;43.168;44.812;2022-10-23T05:22:39;15.50;14.75;10.25
61542;PMS5003;47414;43.168;44.812;2022-10-23T05:27:41;17.00;15.50;10.50
61542;PMS5003;47414;43.168;44.812;2022-10-23T05:32:41;18.50;18.00;12.75
61542;PMS5003;47414;43.168;44.812;2022-10-23T05:37:42;20.50;18.75;13.25
61542;PMS5003;47414;43.168;44.812;2022-10-23T05:42:44;21.75;18.75;12.50
61542;PMS5003;47414;43.168;44.812;2022-10-23T05:47:44;17.75;15.50;10.75
61542;PMS5003;47414;43.168;44.812;2022-10-23T05:52:46;18.25;16.75;13.00
61542;PMS5003;47414;43.168;44.812;2022-10-23T05:57:46;16.25;14.75;11.00
61542;PMS5003;47414;43.168;44.812;2022-10-23T06:02:46;16.00;14.25;9.00
61542;PMS5003;47414;43.168;44.812;2022-10-23T06:07:47;16.75;15.75;10.75
61542;PMS5003;47414;43.168;44.812;2022-10-23T06:12:47;11.50;11.25;8.75
61542;PMS5003;47414;43.168;44.812;2022-10-23T06:17:47;14.00;14.00;9.50
61542;PMS5003;47414;43.168;44.812;2022-10-23T06:22:48;15.00;14.50;11.00
61542;PMS5003;47414;43.168;44.812;2022-10-23T06:27:49;13.50;13.50;11.50
61542;PMS5003;47414;43.168;44.812;2022-10-23T06:32:50;14.00;14.00;9.75
61542;PMS5003;47414;43.168;44.812;2022-10-23T06:37:50;15.50;14.50;10.00
61542;PMS5003;47414;43.168;44.812;2022-10-23T06:42:50;12.75;11.75;7.75
61542;PMS5003;47414;43.168;44.812;2022-10-23T06:47:51;15.25;15.25;9.00
61542;PMS5003;47414;43.168;44.812;2022-10-23T06:52:57;15.50;14.25;9.25
61542;PMS5003;47414;43.168;44.812;2022-10-23T06:57:58;11.50;11.50;8.50
61542;PMS5003;47414;43.168;44.812;2022-10-23T07:02:58;11.25;11.25;7.50
61542;PMS5003;47414;43.168;44.812;2022-10-23T07:07:58;6.50;6.50;5.00
61542;PMS5003;47414;43.168;44.812;2022-10-23T07:12:59;11.00;11.00;8.00
61542;PMS5003;47414;43.168;44.812;2022-10-23T07:17:59;12.00;11.25;8.00
61542;PMS5003;47414;43.168;44.812;2022-10-23T07:23:00;11.50;11.25;7.25
61542;PMS5003;47414;43.168;44.812;2022-10-23T07:28:00;7.25;7.25;5.00
61542;PMS5003;47414;43.168;44.812;2022-10-23T07:33:00;7.00;7.00;4.00
61542;PMS5003;47414;43.168;44.812;2022-10-23T07:38:01;7.00;6.75;4.00
61542;PMS5003;47414;43.168;44.812;2022-10-23T07:43:01;6.00;6.00;3.75
61542;PMS5003;47414;43.168;44.812;2022-10-23T07:48:01;6.00;6.00;4.25
61542;PMS5003;47414;43.168;44.812;2022-10-23T07:53:02;3.00;3.00;2.00
61542;PMS5003;47414;43.168;44.812;2022-10-23T07:58:02;1.50;1.50;1.25
61542;PMS5003;47414;43.168;44.812;2022-10-23T08:03:02;3.75;3.50;3.00
61542;PMS5003;47414;43.168;44.812;2022-10-23T08:08:03;3.75;3.25;2.50
61542;PMS5003;47414;43.168;44.812;2022-10-23T08:13:03;3.00;3.00;2.00
61542;PMS5003;47414;43.168;44.812;2022-10-23T08:18:04;3.00;3.00;2.00
61542;PMS5003;47414;43.168;44.812;2022-10-23T08:23:04;3.75;3.00;2.00
61542;PMS5003;47414;43.168;44.812;2022-10-23T08:28:05;4.00;4.00;3.00
61542;PMS5003;47414;43.168;44.812;2022-10-23T08:33:06;2.25;2.00;1.00
61542;PMS5003;47414;43.168;44.812;2022-10-23T08:38:06;2.25;2.25;1.50
61542;PMS5003;47414;43.168;44.812;2022-10-23T08:43:18;2.25;2.25;2.00
61542;PMS5003;47414;43.168;44.812;2022-10-23T08:53:49;4.25;3.25;3.00
61542;PMS5003;47414;43.168;44.812;2022-10-23T08:59:08;5.00;5.00;3.00
61542;PMS5003;47414;43.168;44.812;2022-10-23T09:04:12;3.00;3.00;2.00
61542;PMS5003;47414;43.168;44.812;2022-10-23T09:19:26;6.25;5.50;3.25
61542;PMS5003;47414;43.168;44.812;2022-10-23T09:24:27;5.75;5.50;3.75
61542;PMS5003;47414;43.168;44.812;2022-10-23T09:29:31;5.75;5.75;4.00
61542;PMS5003;47414;43.168;44.812;2022-10-23T09:34:33;4.00;4.00;2.00
61542;PMS5003;47414;43.168;44.812;2022-10-23T09:39:34;5.00;5.00;3.75
61542;PMS5003;47414;43.168;44.812;2022-10-23T09:44:35;4.50;4.50;3.75
61542;PMS5003;47414;43.168;44.812;2022-10-23T09:49:37;6.50;5.75;3.50
61542;PMS5003;47414;43.168;44.812;2022-10-23T09:54:42;4.50;4.50;4.00
61542;PMS5003;47414;43.168;44.812;2022-10-23T09:59:43;5.00;5.00;4.00
61542;PMS5003;47414;43.168;44.812;2022-10-23T10:04:49;7.75;7.50;5.00
61542;PMS5003;47414;43.168;44.812;2022-10-23T10:09:49;6.75;5.75;4.00
61542;PMS5003;47414;43.168;44.812;2022-10-23T10:14:56;6.50;6.50;4.00
61542;PMS5003;47414;43.168;44.812;2022-10-23T10:30:21;2.25;1.75;0.00
61542;PMS5003;47414;43.168;44.812;2022-10-23T10:45:32;5.00;4.50;2.00
61542;PMS5003;47414;43.168;44.812;2022-10-23T10:50:44;4.00;4.00;3.00
61542;PMS5003;47414;43.168;44.812;2022-10-23T10:55:47;4.00;4.00;2.50
61542;PMS5003;47414;43.168;44.812;2022-10-23T11:00:51;7.00;7.00;4.00
61542;PMS5003;47414;43.168;44.812;2022-10-23T11:05:53;3.25;3.25;3.00
61542;PMS5003;47414;43.168;44.812;2022-10-23T11:11:01;5.50;5.50;3.00
61542;PMS5003;47414;43.168;44.812;2022-10-23T11:16:05;5.00;5.00;3.50
61542;PMS5003;47414;43.168;44.812;2022-10-23T11:21:13;6.00;6.00;4.00
61542;PMS5003;47414;43.168;44.812;2022-10-23T11:32:17;6.25;6.00;4.75
61542;PMS5003;47414;43.168;44.812;2022-10-23T11:36:58;7.00;7.00;4.75
61542;PMS5003;47414;43.168;44.812;2022-10-23T11:42:10;5.75;5.00;4.00
61542;PMS5003;47414;43.168;44.812;2022-10-23T11:52:30;6.75;6.75;4.00
61542;PMS5003;47414;43.168;44.812;2022-10-23T11:57:30;3.75;3.75;2.00
61542;PMS5003;47414;43.168;44.812;2022-10-23T12:02:31;7.00;7.00;5.00
61542;PMS5003;47414;43.168;44.812;2022-10-23T12:07:34;7.00;6.50;4.50
61542;PMS5003;47414;43.168;44.812;2022-10-23T12:12:36;4.75;4.75;3.50
61542;PMS5003;47414;43.168;44.812;2022-10-23T12:17:37;6.50;6.25;4.25
61542;PMS5003;47414;43.168;44.812;2022-10-23T12:27:51;5.00;5.00;3.40
61542;PMS5003;47414;43.168;44.812;2022-10-23T12:38:15;8.25;7.00;6.00
61542;PMS5003;47414;43.168;44.812;2022-10-23T12:43:24;6.75;6.75;4.75
61542;PMS5003;47414;43.168;44.812;2022-10-23T12:48:25;7.00;6.50;3.25
61542;PMS5003;47414;43.168;44.812;2022-10-23T12:53:27;8.75;8.00;5.00
61542;PMS5003;47414;43.168;44.812;2022-10-23T12:58:29;9.60;9.00;5.60
61542;PMS5003;47414;43.168;44.812;2022-10-23T13:03:30;10.50;10.00;5.25
61542;PMS5003;47414;43.168;44.812;2022-10-23T13:08:32;11.75;10.75;6.50
61542;PMS5003;47414;43.168;44.812;2022-10-23T13:13:33;7.00;7.00;6.00
61542;PMS5003;47414;43.168;44.812;2022-10-23T13:18:38;12.00;11.50;6.25
61542;PMS5003;47414;43.168;44.812;2022-10-23T13:23:39;10.00;9.00;7.00
61542;PMS5003;47414;43.168;44.812;2022-10-23T13:28:40;9.50;9.50;7.25
61542;PMS5003;47414;43.168;44.812;2022-10-23T13:33:42;10.75;10.00;6.50
61542;PMS5003;47414;43.168;44.812;2022-10-23T13:38:44;10.00;9.75;7.00
61542;PMS5003;47414;43.168;44.812;2022-10-23T13:43:45;9.25;8.25;6.25
61542;PMS5003;47414;43.168;44.812;2022-10-23T13:48:46;10.00;9.00;6.25
61542;PMS5003;47414;43.168;44.812;2022-10-23T13:53:47;27.25;27.25;19.50
61542;PMS5003;47414;43.168;44.812;2022-10-23T13:58:47;18.25;16.75;10.50
61542;PMS5003;47414;43.168;44.812;2022-10-23T14:03:49;6.50;6.50;5.00
61542;PMS5003;47414;43.168;44.812;2022-10-23T14:08:49;11.50;11.50;7.50
61542;PMS5003;47414;43.168;44.812;2022-10-23T14:13:50;13.50;13.25;8.00
61542;PMS5003;47414;43.168;44.812;2022-10-23T14:18:50;12.00;12.00;8.00
61542;PMS5003;47414;43.168;44.812;2022-10-23T14:23:51;10.00;9.00;6.50
61542;PMS5003;47414;43.168;44.812;2022-10-23T14:28:53;8.75;8.75;5.50
61542;PMS5003;47414;43.168;44.812;2022-10-23T14:33:54;9.00;7.50;7.00
61542;PMS5003;47414;43.168;44.812;2022-10-23T14:38:55;9.00;9.00;6.00
61542;PMS5003;47414;43.168;44.812;2022-10-23T14:43:56;10.50;9.50;6.25
61542;PMS5003;47414;43.168;44.812;2022-10-23T14:48:56;10.00;10.00;6.00
61542;PMS5003;47414;43.168;44.812;2022-10-23T14:54:06;10.25;10.00;5.00
61542;PMS5003;47414;43.168;44.812;2022-10-23T14:59:07;13.00;11.00;8.50
61542;PMS5003;47414;43.168;44.812;2022-10-23T15:04:08;11.00;10.75;7.00
61542;PMS5003;47414;43.168;44.812;2022-10-23T15:09:08;9.00;9.00;6.00
61542;PMS5003;47414;43.168;44.812;2022-10-23T15:14:08;11.50;11.50;8.00
61542;PMS5003;47414;43.168;44.812;2022-10-23T15:19:09;16.00;15.00;10.00
61542;PMS5003;47414;43.168;44.812;2022-10-23T15:24:10;17.00;13.75;10.50
61542;PMS5003;47414;43.168;44.812;2022-10-23T15:29:11;11.00;10.75;6.00
61542;PMS5003;47414;43.168;44.812;2022-10-23T15:34:16;12.00;12.00;7.00
61542;PMS5003;47414;43.168;44.812;2022-10-23T15:39:18;17.50;17.00;11.25
61542;PMS5003;47414;43.168;44.812;2022-10-23T15:44:19;11.50;11.50;9.00
61542;PMS5003;47414;43.168;44.812;2022-10-23T15:49:20;37.50;34.00;22.50
61542;PMS5003;47414;43.168;44.812;2022-10-23T15:54:20;14.00;12.25;9.25
61542;PMS5003;47414;43.168;44.812;2022-10-23T15:59:22;19.50;19.00;14.00
61542;PMS5003;47414;43.168;44.812;2022-10-23T16:04:23;15.75;15.50;10.00
61542;PMS5003;47414;43.168;44.812;2022-10-23T16:09:23;28.75;28.75;17.50
61542;PMS5003;47414;43.168;44.812;2022-10-23T16:14:24;14.75;14.50;10.50
61542;PMS5003;47414;43.168;44.812;2022-10-23T16:19:24;15.50;15.50;11.50
61542;PMS5003;47414;43.168;44.812;2022-10-23T16:24:24;17.50;16.00;10.75
61542;PMS5003;47414;43.168;44.812;2022-10-23T16:29:25;16.00;16.00;10.00
61542;PMS5003;47414;43.168;44.812;2022-10-23T16:34:26;15.25;14.75;9.50
61542;PMS5003;47414;43.168;44.812;2022-10-23T16:39:26;17.25;14.50;9.75
61542;PMS5003;47414;43.168;44.812;2022-10-23T16:44:27;17.50;17.00;12.00
61542;PMS5003;47414;43.168;44.812;2022-10-23T16:49:27;19.50;17.50;11.75
61542;PMS5003;47414;43.168;44.812;2022-10-23T16:54:28;24.00;24.00;16.00
61542;PMS5003;47414;43.168;44.812;2022-10-23T16:59:28;39.00;36.75;23.75
61542;PMS5003;47414;43.168;44.812;2022-10-23T17:04:28;15.00;14.75;10.75
61542;PMS5003;47414;43.168;44.812;2022-10-23T17:09:29;15.25;15.25;10.25
61542;PMS5003;47414;43.168;44.812;2022-10-23T17:14:29;17.75;16.50;12.00
61542;PMS5003;47414;43.168;44.812;2022-10-23T17:19:30;26.25;24.75;16.25
61542;PMS5003;47414;43.168;44.812;2022-10-23T17:24:30;24.00;24.00;18.25
61542;PMS5003;47414;43.168;44.812;2022-10-23T17:29:30;24.50;23.25;18.50
61542;PMS5003;47414;43.168;44.812;2022-10-23T17:34:31;26.50;24.00;16.00
61542;PMS5003;47414;43.168;44.812;2022-10-23T17:39:31;22.25;21.00;16.00
61542;PMS5003;47414;43.168;44.812;2022-10-23T17:44:31;21.75;21.00;14.75
61542;PMS5003;47414;43.168;44.812;2022-10-23T17:49:32;21.00;20.75;14.00
61542;PMS5003;47414;43.168;44.812;2022-10-23T17:54:32;23.75;23.00;15.25
61542;PMS5003;47414;43.168;44.812;2022-10-23T17:59:32;22.00;21.25;14.50
61542;PMS5003;47414;43.168;44.812;2022-10-23T18:04:33;27.75;24.25;15.50
61542;PMS5003;47414;43.168;44.812;2022-10-23T18:09:33;23.00;20.00;15.00
61542;PMS5003;47414;43.168;44.812;2022-10-23T18:14:33;25.00;24.25;19.00
61542;PMS5003;47414;43.168;44.812;2022-10-23T18:19:35;16.00;15.50;10.75
61542;PMS5003;47414;43.168;44.812;2022-10-23T18:24:35;26.75;25.75;17.25
61542;PMS5003;47414;43.168;44.812;2022-10-23T18:29:35;25.50;25.50;14.25
61542;PMS5003;47414;43.168;44.812;2022-10-23T18:34:36;20.00;19.25;13.00
61542;PMS5003;47414;43.168;44.812;2022-10-23T18:39:36;20.00;18.75;11.50
61542;PMS5003;47414;43.168;44.812;2022-10-23T18:44:36;16.50;16.00;11.25
61542;PMS5003;47414;43.168;44.812;2022-10-23T18:49:37;21.50;20.25;12.25
61542;PMS5003;47414;43.168;44.812;2022-10-23T18:54:37;18.50;17.75;11.50
61542;PMS5003;47414;43.168;44.812;2022-10-23T18:59:37;18.25;16.75;12.75
61542;PMS5003;47414;43.168;44.812;2022-10-23T19:04:38;22.25;21.25;15.25
61542;PMS5003;47414;43.168;44.812;2022-10-23T19:09:38;19.00;18.75;12.75
61542;PMS5003;47414;43.168;44.812;2022-10-23T19:14:38;22.50;21.25;15.00
61542;PMS5003;47414;43.168;44.812;2022-10-23T19:19:43;20.00;20.00;12.75
61542;PMS5003;47414;43.168;44.812;2022-10-23T19:24:49;25.75;24.00;15.00
61542;PMS5003;47414;43.168;44.812;2022-10-23T19:29:50;27.25;26.25;20.00
61542;PMS5003;47414;43.168;44.812;2022-10-23T19:34:51;25.75;22.25;14.25
61542;PMS5003;47414;43.168;44.812;2022-10-23T19:39:51;17.50;16.00;12.25
61542;PMS5003;47414;43.168;44.812;2022-10-23T19:44:51;24.50;22.75;14.25
61542;PMS5003;47414;43.168;44.812;2022-10-23T19:49:52;24.75;24.00;15.00
61542;PMS5003;47414;43.168;44.812;2022-10-23T19:54:52;26.25;24.75;14.50
61542;PMS5003;47414;43.168;44.812;2022-10-23T19:59:52;25.00;23.00;14.50
61542;PMS5003;47414;43.168;44.812;2022-10-23T20:04:53;17.50;16.00;12.25
61542;PMS5003;47414;43.168;44.812;2022-10-23T20:09:53;19.00;18.00;13.00
61542;PMS5003;47414;43.168;44.812;2022-10-23T20:14:53;19.25;18.25;12.50
61542;PMS5003;47414;43.168;44.812;2022-10-23T20:19:54;18.50;16.50;11.50
61542;PMS5003;47414;43.168;44.812;2022-10-23T20:24:54;15.75;15.00;12.50
61542;PMS5003;47414;43.168;44.812;2022-10-23T20:29:55;15.50;15.50;12.75
61542;PMS5003;47414;43.168;44.812;2022-10-23T20:34:55;17.75;14.75;10.50
61542;PMS5003;47414;43.168;44.812;2022-10-23T20:39:55;17.50;17.00;12.00
61542;PMS5003;47414;43.168;44.812;2022-10-23T20:44:56;20.50;20.00;13.75
61542;PMS5003;47414;43.168;44.812;2022-10-23T20:49:56;16.25;15.25;10.25
61542;PMS5003;47414;43.168;44.812;2022-10-23T20:54:56;21.00;20.00;12.50
61542;PMS5003;47414;43.168;44.812;2022-10-23T20:59:57;20.75;20.25;14.00
61542;PMS5003;47414;43.168;44.812;2022-10-23T21:04:57;15.75;15.25;9.25
61542;PMS5003;47414;43.168;44.812;2022-10-23T21:09:57;20.25;16.50;11.00
61542;PMS5003;47414;43.168;44.812;2022-10-23T21:14:58;15.75;14.75;10.00
61542;PMS5003;47414;43.168;44.812;2022-10-23T21:19:58;14.00;13.50;8.25
61542;PMS5003;47414;43.168;44.812;2022-10-23T21:24:58;22.00;21.00;11.00
61542;PMS5003;47414;43.168;44.812;2022-10-23T21:29:59;18.00;17.00;10.50
61542;PMS5003;47414;43.168;44.812;2022-10-23T21:34:59;15.50;15.50;10.00
61542;PMS5003;47414;43.168;44.812;2022-10-23T21:39:59;21.25;20.50;13.50
61542;PMS5003;47414;43.168;44.812;2022-10-23T21:45:00;19.00;17.25;11.50
61542;PMS5003;47414;43.168;44.812;2022-10-23T21:50:00;20.25;20.00;14.00
61542;PMS5003;47414;43.168;44.812;2022-10-23T21:55:00;19.50;19.50;12.50
61542;PMS5003;47414;43.168;44.812;2022-10-23T22:00:01;16.25;16.25;10.75
61542;PMS5003;47414;43.168;44.812;2022-10-23T22:05:01;16.75;16.00;11.50
61542;PMS5003;47414;43.168;44.812;2022-10-23T22:10:02;13.00;13.00;9.75
61542;PMS5003;47414;43.168;44.812;2022-10-23T22:15:03;9.75;9.75;7.50
61542;PMS5003;47414;43.168;44.812;2022-10-23T22:20:03;10.00;9.00;6.25
61542;PMS5003;47414;43.168;44.812;2022-10-23T22:25:04;14.25;13.25;8.75
61542;PMS5003;47414;43.168;44.812;2022-10-23T22:30:04;12.50;12.25;9.00
61542;PMS5003;47414;43.168;44.812;2022-10-23T22:35:05;8.75;8.25;6.00
61542;PMS5003;47414;43.168;44.812;2022-10-23T22:40:05;15.25;13.00;8.00
61542;PMS5003;47414;43.168;44.812;2022-10-23T22:45:06;12.00;11.00;6.75
61542;PMS5003;47414;43.168;44.812;2022-10-23T22:50:07;13.00;12.25;7.75
61542;PMS5003;47414;43.168;44.812;2022-10-23T22:55:07;11.50;11.50;7.50
61542;PMS5003;47414;43.168;44.812;2022-10-23T23:00:08;16.75;15.75;11.25
61542;PMS5003;47414;43.168;44.812;2022-10-23T23:05:09;15.25;14.25;10.00
61542;PMS5003;47414;43.168;44.812;2022-10-23T23:10:10;18.00;16.00;10.50
61542;PMS5003;47414;43.168;44.812;2022-10-23T23:15:10;14.00;14.00;11.25
61542;PMS5003;47414;43.168;44.812;2022-10-23T23:20:10;14.50;13.50;9.75
61542;PMS5003;47414;43.168;44.812;2022-10-23T23:25:11;17.75;17.25;11.00
61542;PMS5003;47414;43.168;44.812;2022-10-23T23:30:11;16.50;15.75;10.75
61542;PMS5003;47414;43.168;44.812;2022-10-23T23:35:12;16.00;16.00;11.00
61542;PMS5003;47414;43.168;44.812;2022-10-23T23:40:12;16.00;15.75;11.00
61542;PMS5003;47414;43.168;44.812;2022-10-23T23:45:13;17.50;15.75;9.75
61542;PMS5003;47414;43.168;44.812;2022-10-23T23:50:13;17.75;17.00;11.00
61542;PMS5003;47414;43.168;44.812;2022-10-23T23:55:13;14.75;13.50;9.00
